Time;durP1;ratioP1;P1;durP2;ratioP2;P2;SDS_P1;SDS_P2;PMS_P1;PMS_P2;Temp;Humidity;BMP_temperature;BMP_pressure;BME280_temperature;BME280_humidity;BME280_pressure;Samples;Min_cycle;Max_cycle;Signal;HPM_P1;HPM_P2
2024/03/19 00:01:40;;;;;;;1.27;1.10;;;;;;;-3.53;62.79;102526.91;5024979;28;20448;-67
2024/03/19 00:04:09;;;;;;;1.53;1.13;;;;;;;-3.53;62.50;102528.59;5026960;28;20441;-67
2024/03/19 00:06:36;;;;;;;1.37;1.00;;;;;;;-3.53;62.57;102526.91;5024866;28;20443;-66
2024/03/19 00:09:04;;;;;;;2.27;1.07;;;;;;;-3.55;62.86;102523.38;5024505;28;20448;-66
2024/03/19 00:11:31;;;;;;;0.93;0.77;;;;;;;-3.56;62.68;102520.69;5026750;28;20452;-66
2024/03/19 00:13:58;;;;;;;1.13;0.97;;;;;;;-3.57;62.77;102524.06;5024782;28;20440;-70
2024/03/19 00:16:24;;;;;;;2.10;1.10;;;;;;;-3.59;62.29;102526.53;5027639;28;20940;-70
2024/03/19 00:18:52;;;;;;;2.00;1.00;;;;;;;-3.60;62.56;102517.06;5023800;28;20489;-70
2024/03/19 00:21:21;;;;;;;1.77;1.00;;;;;;;-3.60;62.83;102522.19;5025874;28;20524;-70
2024/03/19 00:23:48;;;;;;;1.47;1.07;;;;;;;-3.64;62.88;102520.25;5026072;28;20559;-70
2024/03/19 00:26:15;;;;;;;2.17;1.27;;;;;;;-3.63;62.87;102523.69;5023574;28;20447;-71
2024/03/19 00:28:42;;;;;;;1.40;1.30;;;;;;;-3.63;62.55;102523.69;5025734;28;20524;-71
2024/03/19 00:31:10;;;;;;;2.60;1.23;;;;;;;-3.66;62.72;102519.25;5025538;28;20477;-70
2024/03/19 00:33:37;;;;;;;2.87;1.23;;;;;;;-3.69;62.60;102519.06;5026890;28;20448;-70
2024/03/19 00:36:07;;;;;;;1.10;1.00;;;;;;;-3.69;62.75;102515.63;5022632;28;20932;-70
2024/03/19 00:38:35;;;;;;;1.70;1.13;;;;;;;-3.70;63.05;102517.28;5025846;28;20991;-70
2024/03/19 00:41:02;;;;;;;3.07;1.20;;;;;;;-3.71;62.93;102518.06;5023501;28;20824;-70
2024/03/19 00:43:29;;;;;;;1.67;1.03;;;;;;;-3.72;62.96;102511.19;5025098;28;20429;-70
2024/03/19 00:45:56;;;;;;;1.87;0.97;;;;;;;-3.73;62.82;102517.09;5025655;28;20449;-70
2024/03/19 00:48:22;;;;;;;1.20;0.87;;;;;;;-3.74;62.43;102515.31;5023061;28;20959;-70
2024/03/19 00:50:49;;;;;;;2.77;1.30;;;;;;;-3.76;63.17;102515.22;5025164;28;20455;-70
2024/03/19 00:53:17;;;;;;;2.03;1.10;;;;;;;-3.78;62.95;102518.47;5025489;28;20449;-71
2024/03/19 00:55:45;;;;;;;1.20;1.00;;;;;;;-3.79;63.30;102514.13;5023431;28;20520;-73
2024/03/19 00:58:14;;;;;;;3.40;1.30;;;;;;;-3.80;62.94;102514.94;5024858;28;20499;-73
2024/03/19 01:00:41;;;;;;;3.23;1.47;;;;;;;-3.82;63.02;102517.38;5025410;28;20453;-72
2024/03/19 01:03:08;;;;;;;1.93;1.13;;;;;;;-3.83;63.05;102518.19;5023081;28;20504;-72
2024/03/19 01:05:35;;;;;;;1.33;1.23;;;;;;;-3.84;63.02;102524.09;5024645;28;20458;-72
2024/03/19 01:08:02;;;;;;;2.80;1.07;;;;;;;-3.83;63.20;102519.84;5025389;28;20447;-72
2024/03/19 01:10:29;;;;;;;2.97;1.27;;;;;;;-3.86;62.96;102517.97;5022877;28;20537;-72
2024/03/19 01:12:57;;;;;;;2.23;1.20;;;;;;;-3.87;63.28;102517.91;5024756;28;20961;-72
2024/03/19 01:15:26;;;;;;;1.20;1.10;;;;;;;-3.89;62.97;102525.47;5025196;28;20446;-72
2024/03/19 01:17:52;;;;;;;2.47;1.10;;;;;;;-3.89;63.10;102529.69;5022588;28;20575;-72
2024/03/19 01:20:20;;;;;;;1.77;1.20;;;;;;;-3.90;63.03;102523.69;5023814;28;20521;-73
2024/03/19 01:22:47;;;;;;;4.53;1.23;;;;;;;-3.90;63.11;102527.91;5024958;28;20451;-72
2024/03/19 01:25:14;;;;;;;2.67;1.27;;;;;;;-3.91;63.18;102521.03;5022605;28;20496;-69
2024/03/19 01:27:41;;;;;;;1.20;1.07;;;;;;;-3.92;63.45;102532.06;5024328;28;20460;-70
2024/03/19 01:30:11;;;;;;;1.53;1.23;;;;;;;-3.92;63.30;102516.72;5024817;28;20483;-69
2024/03/19 01:32:38;;;;;;;1.30;1.20;;;;;;;-3.94;63.40;102525.16;5022426;28;20443;-70
2024/03/19 01:35:05;;;;;;;2.43;1.40;;;;;;;-3.92;62.99;102521.81;5023987;28;20793;-69
2024/03/19 01:37:32;;;;;;;1.87;1.40;;;;;;;-3.92;63.41;102526.94;5022267;28;20453;-69
2024/03/19 01:39:59;;;;;;;2.70;1.37;;;;;;;-3.92;63.58;102525.25;5022183;28;20989;-70
2024/03/19 01:42:26;;;;;;;1.53;1.17;;;;;;;-3.91;63.04;102528.69;5023941;28;20448;-70
2024/03/19 01:45:09;;;;;;;1.30;1.17;;;;;;;-3.92;63.51;102520.16;5024469;28;20443;-70
2024/03/19 01:47:37;;;;;;;1.40;1.30;;;;;;;-3.91;63.32;102518.47;5024056;28;20444;-69
2024/03/19 01:50:06;;;;;;;3.67;1.37;;;;;;;-3.92;63.74;102514.16;5022057;28;20448;-70
2024/03/19 01:52:34;;;;;;;2.90;1.67;;;;;;;-3.89;63.77;102522.03;5024049;28;20445;-70
2024/03/19 01:55:01;;;;;;;1.23;1.13;;;;;;;-3.88;63.73;102518.66;5024261;28;20842;-69
2024/03/19 01:57:28;;;;;;;1.50;1.40;;;;;;;-3.89;63.62;102520.34;5021878;28;20441;-70
2024/03/19 01:59:55;;;;;;;2.07;1.50;;;;;;;-3.87;63.50;102520.47;5023921;28;20483;-69
2024/03/19 02:02:32;;;;;;;2.27;1.67;;;;;;;-3.87;63.79;102517.91;5024158;28;20504;-69
2024/03/19 02:05:00;;;;;;;3.60;1.40;;;;;;;-3.87;63.62;102515.34;5021052;28;20432;-80
2024/03/19 02:07:27;;;;;;;2.33;1.47;;;;;;;-3.88;63.62;102508.44;5021373;28;20445;-80
2024/03/19 02:09:55;;;;;;;1.70;1.33;;;;;;;-3.86;63.78;102509.44;5021414;28;20817;-80
2024/03/19 02:12:22;;;;;;;1.57;1.30;;;;;;;-3.87;63.71;102516.22;5023240;28;20443;-80
2024/03/19 02:14:49;;;;;;;2.60;1.50;;;;;;;-3.84;63.66;102518.09;5025840;28;20452;-80
2024/03/19 02:17:16;;;;;;;3.27;1.80;;;;;;;-3.83;63.46;102514.72;5021868;28;20821;-79
2024/03/19 02:19:44;;;;;;;1.10;1.00;;;;;;;-3.83;63.73;102512.19;5025803;28;20575;-80
2024/03/19 02:22:12;;;;;;;1.70;1.30;;;;;;;-3.81;64.02;102508.06;5022683;28;20447;-80
2024/03/19 02:24:42;;;;;;;1.57;1.47;;;;;;;-3.82;63.71;102519.94;5024945;28;20441;-80
2024/03/19 02:27:09;;;;;;;1.73;1.50;;;;;;;-3.80;63.91;102520.03;5024780;28;20458;-80
2024/03/19 02:29:36;;;;;;;1.23;1.17;;;;;;;-3.79;63.82;102516.69;5024528;28;20494;-80
2024/03/19 02:32:03;;;;;;;1.10;1.00;;;;;;;-3.80;63.46;102514.94;5022232;28;20449;-80
2024/03/19 02:34:31;;;;;;;2.47;1.10;;;;;;;-3.79;63.60;102516.69;5023672;28;20442;-72
2024/03/19 02:36:58;;;;;;;1.50;1.40;;;;;;;-3.78;64.07;102518.47;5024065;28;20518;-72
2024/03/19 02:39:25;;;;;;;1.27;1.17;;;;;;;-3.77;63.66;102525.34;5021349;28;20574;-72
2024/03/19 02:41:54;;;;;;;1.50;1.23;;;;;;;-3.78;63.90;102519.34;5023212;28;20450;-72
2024/03/19 02:44:20;;;;;;;2.07;1.43;;;;;;;-3.78;63.97;102521.91;5023822;28;20451;-72
2024/03/19 02:46:47;;;;;;;1.43;1.20;;;;;;;-3.77;64.19;102520.25;5021367;28;20439;-72
2024/03/19 02:49:14;;;;;;;1.73;1.30;;;;;;;-3.75;64.15;102518.66;5022954;28;20935;-72
2024/03/19 02:51:41;;;;;;;1.80;1.23;;;;;;;-3.74;64.32;102518.75;5023612;28;20441;-72
2024/03/19 02:54:08;;;;;;;1.77;1.40;;;;;;;-3.73;64.30;102512.88;5021236;28;20449;-72
2024/03/19 02:56:35;;;;;;;2.30;1.67;;;;;;;-3.71;64.30;102510.38;5022989;28;20935;-72
2024/03/19 02:59:03;;;;;;;2.60;1.20;;;;;;;-3.71;63.99;102506.16;5023412;28;20489;-72
2024/03/19 03:01:30;;;;;;;1.90;1.47;;;;;;;-3.70;64.24;102512.19;5021014;28;20442;-72
2024/03/19 03:03:57;;;;;;;4.03;1.40;;;;;;;-3.70;63.99;102512.19;5023065;28;20444;-72
2024/03/19 03:06:24;;;;;;;1.40;1.30;;;;;;;-3.68;63.97;102520.81;5023349;28;20439;-72
2024/03/19 03:08:50;;;;;;;1.60;1.20;;;;;;;-3.68;63.86;102512.25;5020991;28;20494;-72
2024/03/19 03:11:17;;;;;;;1.30;1.20;;;;;;;-3.68;64.05;102515.69;5023275;28;20808;-73
2024/03/19 03:13:44;;;;;;;1.87;1.50;;;;;;;-3.67;64.60;102520.03;5022737;28;20529;-72
2024/03/19 03:16:13;;;;;;;2.83;1.40;;;;;;;-3.66;63.97;102516.69;5021013;28;20466;-70
2024/03/19 03:18:39;;;;;;;2.17;1.40;;;;;;;-3.66;64.39;102514.13;5023021;28;20489;-70
2024/03/19 03:21:06;;;;;;;2.87;1.50;;;;;;;-3.65;64.00;102515.88;5022768;28;20461;-70
2024/03/19 03:23:34;;;;;;;3.83;1.47;;;;;;;-3.64;64.13;102517.69;5020852;28;20447;-70
2024/03/19 03:26:02;;;;;;;2.50;1.27;;;;;;;-3.64;64.40;102511.69;5023225;28;20515;-70
2024/03/19 03:28:28;;;;;;;1.70;1.37;;;;;;;-3.63;64.42;102516.00;5022651;28;20446;-70
2024/03/19 03:30:55;;;;;;;1.50;1.40;;;;;;;-3.63;64.28;102518.56;5020876;28;20842;-70
2024/03/19 03:33:24;;;;;;;2.00;1.47;;;;;;;-3.63;64.31;102513.44;5023364;28;20438;-70
2024/03/19 03:35:51;;;;;;;1.37;1.27;;;;;;;-3.65;64.11;102510.78;5022475;28;20488;-70
2024/03/19 03:38:18;;;;;;;2.50;1.67;;;;;;;-3.65;64.18;102505.66;5020457;28;20452;-70
2024/03/19 03:40:45;;;;;;;1.60;1.20;;;;;;;-3.64;64.26;102511.69;5021277;28;20446;-70
2024/03/19 03:43:12;;;;;;;3.60;1.23;;;;;;;-3.64;63.94;102514.25;5023892;28;20450;-70
2024/03/19 03:45:39;;;;;;;1.33;1.17;;;;;;;-3.66;64.42;102511.56;5023747;28;20607;-70
2024/03/19 03:48:07;;;;;;;2.77;1.23;;;;;;;-3.66;64.24;102514.13;5024909;28;20443;-70
2024/03/19 03:50:35;;;;;;;1.43;1.33;;;;;;;-3.67;63.98;102509.81;5025726;28;20470;-70
2024/03/19 03:53:02;;;;;;;1.83;1.33;;;;;;;-3.66;64.25;102514.13;5027184;28;20444;-70
2024/03/19 03:55:29;;;;;;;1.60;1.17;;;;;;;-3.67;64.24;102512.38;5024681;28;20452;-70
2024/03/19 03:57:56;;;;;;;1.50;1.40;;;;;;;-3.67;64.20;102514.94;5025552;28;20871;-70
2024/03/19 04:00:23;;;;;;;1.50;1.40;;;;;;;-3.68;64.14;102505.47;5026713;28;20482;-70
2024/03/19 04:02:51;;;;;;;1.60;1.50;;;;;;;-3.68;64.43;102510.56;5024483;28;20808;-70
2024/03/19 04:05:18;;;;;;;1.70;1.40;;;;;;;-3.68;64.27;102512.25;5025362;28;20449;-70
2024/03/19 04:07:46;;;;;;;2.47;1.50;;;;;;;-3.69;64.14;102503.72;5026868;28;20449;-70
2024/03/19 04:10:15;;;;;;;1.23;1.13;;;;;;;-3.69;64.48;102505.38;5024434;28;20465;-70
2024/03/19 04:12:43;;;;;;;2.63;1.23;;;;;;;-3.69;63.84;102503.72;5024864;28;20814;-70
2024/03/19 04:15:12;;;;;;;2.40;1.40;;;;;;;-3.71;64.11;102505.28;5026667;28;20440;-70
2024/03/19 04:17:40;;;;;;;1.50;1.40;;;;;;;-3.70;64.39;102496.84;5024759;28;20461;-70
2024/03/19 04:20:11;;;;;;;1.63;1.50;;;;;;;-3.71;64.27;102500.16;5024487;28;20544;-70
2024/03/19 04:22:38;;;;;;;1.67;1.40;;;;;;;-3.71;64.49;102500.16;5026490;28;20451;-70
2024/03/19 04:25:08;;;;;;;1.97;1.40;;;;;;;-3.71;64.22;102497.59;5025201;28;20946;-70
2024/03/19 04:27:35;;;;;;;1.33;1.23;;;;;;;-3.71;64.50;102507.84;5023721;28;20570;-70
2024/03/19 04:30:02;;;;;;;2.73;1.53;;;;;;;-3.71;64.50;102500.16;5024080;28;20468;-70
2024/03/19 04:32:29;;;;;;;3.43;1.60;;;;;;;-3.72;64.54;102504.41;5024811;28;20540;-70
2024/03/19 04:34:56;;;;;;;1.77;1.33;;;;;;;-3.70;64.52;102509.63;5026583;28;20434;-70
2024/03/19 04:37:23;;;;;;;1.83;1.33;;;;;;;-3.70;64.54;102509.63;5023662;28;20434;-70
2024/03/19 04:39:50;;;;;;;3.43;1.47;;;;;;;-3.69;64.73;102510.50;5025012;28;20482;-70
2024/03/19 04:42:20;;;;;;;2.50;1.43;;;;;;;-3.68;64.71;102507.16;5026057;28;20454;-70
2024/03/19 04:44:47;;;;;;;2.17;1.57;;;;;;;-3.68;64.83;102508.03;5024137;28;20826;-70
2024/03/19 04:47:17;;;;;;;2.23;1.40;;;;;;;-3.68;64.47;102500.34;5024523;28;20444;-70
2024/03/19 04:49:44;;;;;;;2.23;1.60;;;;;;;-3.67;64.52;102504.69;5026084;28;20505;-70
2024/03/19 04:52:11;;;;;;;2.27;1.23;;;;;;;-3.67;64.89;102511.50;5024078;28;20454;-70
2024/03/19 04:54:39;;;;;;;1.60;1.50;;;;;;;-3.66;64.90;102509.00;5022853;28;20457;-69
2024/03/19 04:57:06;;;;;;;1.57;1.37;;;;;;;-3.65;64.76;102510.78;5026100;28;20926;-69
2024/03/19 04:59:34;;;;;;;1.53;1.43;;;;;;;-3.65;64.69;102517.56;5023867;28;20481;-69
2024/03/19 05:02:01;;;;;;;1.23;1.17;;;;;;;-3.63;64.60;102513.44;5024085;28;20809;-69
2024/03/19 05:04:28;;;;;;;1.43;1.27;;;;;;;-3.64;64.55;102515.13;5025882;28;20526;-69
2024/03/19 05:06:55;;;;;;;1.47;1.37;;;;;;;-3.64;64.87;102512.56;5023482;28;20457;-69
2024/03/19 05:09:22;;;;;;;1.50;1.30;;;;;;;-3.64;64.85;102520.25;5024044;28;20432;-69
2024/03/19 05:11:49;;;;;;;2.60;1.40;;;;;;;-3.64;64.79;102516.81;5025744;28;20445;-69
2024/03/19 05:14:16;;;;;;;2.37;1.30;;;;;;;-3.63;64.63;102524.56;5023535;28;20466;-69
2024/03/19 05:16:44;;;;;;;2.63;1.60;;;;;;;-3.64;65.07;102517.69;5023959;28;20442;-69
2024/03/19 05:19:13;;;;;;;3.03;1.47;;;;;;;-3.62;64.78;102528.00;5025501;28;20536;-69
2024/03/19 05:21:40;;;;;;;1.47;1.37;;;;;;;-3.63;64.94;102518.56;5023457;28;20479;-70
2024/03/19 05:24:07;;;;;;;2.10;1.43;;;;;;;-3.64;64.83;102521.91;5023538;28;20826;-69
2024/03/19 05:26:34;;;;;;;2.20;1.40;;;;;;;-3.62;64.79;102528.00;5025600;28;20956;-69
2024/03/19 05:29:01;;;;;;;1.80;1.23;;;;;;;-3.63;65.10;102522.00;5022852;28;20454;-69
2024/03/19 05:31:29;;;;;;;2.13;1.23;;;;;;;-3.62;64.90;102518.66;5023613;28;20433;-69
2024/03/19 05:33:58;;;;;;;3.80;1.88;;;;;;;-3.58;67.07;102512.06;5024217;28;20456;-68
2024/03/19 05:36:26;;;;;;;1.80;1.50;;;;;;;-3.54;66.22;102516.56;5021373;28;20206;-68
2024/03/19 05:38:53;;;;;;;1.27;1.10;;;;;;;-3.52;66.24;102512.44;5024695;28;20498;-69
2024/03/19 05:41:20;;;;;;;1.67;1.57;;;;;;;-3.55;65.45;102512.25;5025360;28;20483;-69
2024/03/19 05:43:49;;;;;;;1.40;1.30;;;;;;;-3.51;66.04;102521.88;5023455;28;20509;-69
2024/03/19 05:46:16;;;;;;;2.60;1.37;;;;;;;-3.51;65.53;102517.63;5023024;28;20449;-68
2024/03/19 05:48:43;;;;;;;1.90;1.20;;;;;;;-3.50;65.75;102522.00;5025053;28;20448;-69
2024/03/19 05:51:12;;;;;;;1.57;1.30;;;;;;;-3.50;65.63;102522.00;5022952;28;20450;-68
2024/03/19 05:53:39;;;;;;;2.03;1.17;;;;;;;-3.48;65.60;102519.50;5022684;28;20456;-69
2024/03/19 05:56:08;;;;;;;1.17;1.10;;;;;;;-3.48;65.53;102519.50;5024901;28;20448;-68
2024/03/19 05:58:35;;;;;;;2.27;1.30;;;;;;;-3.47;65.86;102512.75;5023156;28;20439;-69
2024/03/19 06:01:03;;;;;;;1.70;1.40;;;;;;;-3.46;65.73;102512.81;5022502;28;20491;-69
2024/03/19 06:03:32;;;;;;;1.63;1.43;;;;;;;-3.45;65.42;102517.13;5024736;28;20442;-69
2024/03/19 06:05:59;;;;;;;1.80;1.40;;;;;;;-3.44;65.80;102518.94;5024419;28;20548;-89
2024/03/19 06:08:28;;;;;;;1.80;1.23;;;;;;;-3.41;65.41;102515.69;5023737;28;20486;-87
2024/03/19 06:10:56;;;;;;;1.33;1.13;;;;;;;-3.42;65.85;102509.69;5023849;28;20460;-90
2024/03/19 06:13:23;;;;;;;1.40;1.30;;;;;;;-3.37;65.72;102515.94;5024707;28;20456;-90
2024/03/19 06:15:50;;;;;;;1.80;1.50;;;;;;;-3.34;65.56;102510.13;5022713;28;20454;-89
2024/03/19 06:18:17;;;;;;;1.97;1.47;;;;;;;-3.32;65.62;102521.34;5025949;28;20462;-88
2024/03/19 06:20:46;;;;;;;2.63;1.50;;;;;;;-3.30;66.11;102512.13;5026102;28;20487;-89
2024/03/19 06:23:13;;;;;;;2.10;1.70;;;;;;;-3.27;65.88;102512.28;5026121;28;20448;-89
2024/03/19 06:25:41;;;;;;;1.73;1.40;;;;;;;-3.27;66.16;102512.28;5025820;28;20453;-85
2024/03/19 06:28:08;;;;;;;1.70;1.30;;;;;;;-3.20;66.26;102519.53;5028718;28;20440;-85
2024/03/19 06:30:35;;;;;;;3.03;1.50;;;;;;;-3.17;66.23;102524.84;5022567;28;21018;-87
2024/03/19 06:33:02;;;;;;;1.30;1.20;;;;;;;-3.13;66.00;102529.38;5029268;28;20457;-89
2024/03/19 06:35:30;;;;;;;2.13;1.60;;;;;;;-3.09;66.38;102525.34;5027321;28;20466;-82
2024/03/19 06:37:58;;;;;;;1.40;1.30;;;;;;;-3.07;66.40;102524.63;5021907;28;20445;-82
2024/03/19 06:40:24;;;;;;;2.67;1.53;;;;;;;-3.00;66.21;102530.13;5005838;28;20491;-81
2024/03/19 06:42:53;;;;;;;1.67;1.30;;;;;;;-2.96;66.48;102534.66;5027071;28;20448;-82
2024/03/19 06:45:20;;;;;;;1.57;1.20;;;;;;;-2.93;66.17;102532.28;5021548;28;20450;-70
2024/03/19 06:47:47;;;;;;;2.37;1.30;;;;;;;-2.89;66.60;102539.34;5023773;28;20439;-70
2024/03/19 06:50:14;;;;;;;1.60;1.50;;;;;;;-2.84;66.53;102532.81;5022986;28;20936;-70
2024/03/19 06:52:43;;;;;;;1.23;1.13;;;;;;;-2.81;66.60;102526.22;5021290;28;20846;-70
2024/03/19 06:55:11;;;;;;;1.40;1.30;;;;;;;-2.76;66.54;102526.50;5023518;28;20454;-70
2024/03/19 06:57:39;;;;;;;1.20;1.10;;;;;;;-2.72;66.44;102528.44;5023032;28;20457;-69
2024/03/19 07:00:13;;;;;;;1.47;1.10;;;;;;;-2.68;66.73;102525.28;5021295;28;20501;-71
2024/03/19 07:02:41;;;;;;;1.93;0.90;;;;;;;-2.62;66.99;102525.63;5022434;28;20437;-70
2024/03/19 07:05:09;;;;;;;1.60;1.17;;;;;;;-2.58;67.28;102527.56;5024072;28;20446;-70
2024/03/19 07:07:36;;;;;;;2.23;1.10;;;;;;;-2.53;66.62;102532.97;5021748;28;20534;-69
2024/03/19 07:10:04;;;;;;;2.20;0.90;;;;;;;-2.49;66.61;102532.34;5022045;28;20881;-69
2024/03/19 07:12:32;;;;;;;2.87;2.10;;;;;;;-2.43;66.42;102536.94;5023983;28;20518;-70
2024/03/19 07:15:00;;;;;;;1.17;1.10;;;;;;;-2.39;66.68;102533.78;5021861;28;20880;-67
2024/03/19 07:17:30;;;;;;;1.67;1.00;;;;;;;-2.34;66.99;102534.91;5022747;28;20509;-67
2024/03/19 07:19:58;;;;;;;1.20;0.87;;;;;;;-2.29;67.07;102525.81;5027937;28;20482;-67
2024/03/19 07:22:25;;;;;;;1.47;1.00;;;;;;;-2.24;66.92;102533.78;5026154;28;20935;-67
2024/03/19 07:24:52;;;;;;;3.37;0.83;;;;;;;-2.19;67.21;102532.38;5025273;28;20967;-67
2024/03/19 07:27:19;;;;;;;1.40;1.20;;;;;;;-2.13;67.23;102536.16;5027671;28;20447;-67
2024/03/19 07:29:47;;;;;;;0.90;0.80;;;;;;;-2.06;66.72;102537.41;5025717;28;20487;-67
2024/03/19 07:32:14;;;;;;;0.70;0.70;;;;;;;-2.00;67.51;102531.72;5025500;28;20462;-67
2024/03/19 07:34:42;;;;;;;0.60;0.60;;;;;;;-1.93;67.33;102528.72;5027690;28;20442;-67
2024/03/19 07:37:10;;;;;;;0.93;0.70;;;;;;;-1.86;67.09;102523.13;5023360;28;20450;-67
2024/03/19 07:39:37;;;;;;;1.63;0.90;;;;;;;-1.77;66.98;102528.81;5025009;28;20451;-68
2024/03/19 07:42:05;;;;;;;1.63;0.70;;;;;;;-1.66;67.15;102529.38;5027492;28;20518;-68
2024/03/19 07:44:32;;;;;;;1.70;0.70;;;;;;;-1.58;66.22;102528.13;5025634;28;20443;-68
2024/03/19 07:46:59;;;;;;;1.47;0.90;;;;;;;-1.48;67.01;102527.84;5025067;28;20622;-68
2024/03/19 07:49:26;;;;;;;2.70;0.83;;;;;;;-1.37;66.68;102531.00;5027175;28;21002;-68
2024/03/19 07:51:54;;;;;;;1.27;0.77;;;;;;;-1.26;67.20;102532.47;5025784;28;20828;-68
2024/03/19 07:54:27;;;;;;;1.90;0.80;;;;;;;-1.15;66.26;102524.44;5023513;28;20436;-72
2024/03/19 07:56:55;;;;;;;1.90;0.93;;;;;;;-1.03;66.73;102525.97;5027130;28;20443;-72
2024/03/19 07:59:22;;;;;;;1.03;0.90;;;;;;;-0.90;67.03;102524.03;5026449;28;20489;-72
2024/03/19 08:01:50;;;;;;;1.43;0.97;;;;;;;-0.79;66.06;102525.50;5024098;28;20491;-73
2024/03/19 08:04:17;;;;;;;0.73;0.70;;;;;;;-0.68;67.13;102520.91;5026363;28;20446;-73
2024/03/19 08:06:44;;;;;;;0.90;0.90;;;;;;;-0.57;66.47;102514.63;5026173;28;20522;-73
2024/03/19 08:09:12;;;;;;;1.10;0.90;;;;;;;-0.45;66.25;102520.38;5024227;28;20447;-73
2024/03/19 08:11:40;;;;;;;1.23;0.60;;;;;;;-0.35;66.18;102522.63;5026107;28;20935;-73
2024/03/19 08:14:07;;;;;;;1.67;0.80;;;;;;;-0.23;66.71;102526.59;5023021;28;20945;-73
2024/03/19 08:16:33;;;;;;;3.23;0.80;;;;;;;-0.11;66.48;102527.22;5023478;28;20448;-73
2024/03/19 08:19:01;;;;;;;0.77;0.77;;;;;;;-0.01;66.36;102521.69;5026169;28;20453;-73
2024/03/19 08:21:28;;;;;;;1.00;0.90;;;;;;;0.10;65.89;102522.22;5025713;28;20866;-73
2024/03/19 08:23:57;;;;;;;2.00;0.80;;;;;;;0.21;65.44;102515.88;5023866;28;20453;-72
2024/03/19 08:26:25;;;;;;;0.73;0.57;;;;;;;0.32;65.42;102525.00;5027334;28;20443;-86
2024/03/19 08:28:52;;;;;;;1.53;0.80;;;;;;;0.42;65.61;102522.84;5027587;28;20443;-86
2024/03/19 08:31:19;;;;;;;0.83;0.73;;;;;;;0.50;65.17;102524.97;5027806;28;20443;-86
2024/03/19 08:33:46;;;;;;;0.63;0.63;;;;;;;0.62;65.31;102523.78;5025903;28;20944;-86
2024/03/19 08:36:12;;;;;;;0.73;0.63;;;;;;;0.70;64.86;102514.72;5028714;28;20453;-86
2024/03/19 08:38:41;;;;;;;3.00;0.97;;;;;;;0.78;65.17;102516.81;5025173;28;20446;-86
2024/03/19 08:41:08;;;;;;;2.13;0.90;;;;;;;0.86;64.79;102517.19;5026758;28;20491;-85
2024/03/19 08:43:36;;;;;;;1.57;0.60;;;;;;;0.96;65.00;102508.16;5023765;28;20546;-85
2024/03/19 08:46:04;;;;;;;2.23;0.80;;;;;;;0.99;64.56;102503.13;5027456;28;20449;-86
2024/03/19 08:48:31;;;;;;;2.83;1.10;;;;;;;1.08;64.81;102503.56;5025562;28;20812;-86
2024/03/19 08:50:57;;;;;;;1.10;0.90;;;;;;;1.18;64.79;102505.72;5021917;28;20451;-88
2024/03/19 08:53:24;;;;;;;0.97;0.60;;;;;;;1.26;64.13;102503.47;5027284;28;20440;-85
2024/03/19 08:55:59;;;;;;;1.37;0.80;;;;;;;1.32;63.84;102502.88;5024925;28;20462;-86
2024/03/19 08:58:26;;;;;;;0.73;0.63;;;;;;;1.40;64.01;102510.09;5028309;28;21290;-85
2024/03/19 09:00:54;;;;;;;0.53;0.50;;;;;;;1.46;64.16;102505.22;5024825;28;20489;-86
2024/03/19 09:03:21;;;;;;;1.57;0.90;;;;;;;1.53;63.54;102505.47;5025540;28;20448;-85
2024/03/19 09:05:55;;;;;;;1.97;0.70;;;;;;;1.58;63.22;102501.38;5026280;28;20444;-71
2024/03/19 09:08:22;;;;;;;1.23;0.77;;;;;;;1.62;63.03;102505.88;5024267;28;20433;-71
2024/03/19 09:10:52;;;;;;;2.93;0.80;;;;;;;1.66;62.86;102503.47;5023434;28;20451;-71
2024/03/19 09:13:18;;;;;;;1.17;0.77;;;;;;;1.70;62.96;102499.31;5026790;28;20452;-71
2024/03/19 09:15:46;;;;;;;2.20;0.90;;;;;;;1.74;62.85;102501.22;5024514;28;20452;-71
2024/03/19 09:18:14;;;;;;;0.90;0.90;;;;;;;1.80;62.89;102498.00;5025406;28;20444;-71
2024/03/19 09:20:41;;;;;;;2.67;1.20;;;;;;;1.84;62.85;102500.75;5022760;28;20480;-71
2024/03/19 09:23:09;;;;;;;1.37;0.60;;;;;;;1.87;62.11;102498.28;5024106;28;20445;-71
2024/03/19 09:25:36;;;;;;;3.63;0.67;;;;;;;1.91;62.64;102500.19;5025189;28;20446;-71
2024/03/19 09:28:03;;;;;;;3.60;0.90;;;;;;;1.96;62.30;102499.50;5022885;28;20447;-71
2024/03/19 09:30:30;;;;;;;1.70;0.90;;;;;;;1.99;62.08;102495.34;5024042;28;21240;-71
2024/03/19 09:32:57;;;;;;;3.33;0.67;;;;;;;2.20;61.32;102491.84;5024945;28;20450;-71
2024/03/19 09:35:26;;;;;;;1.93;0.90;;;;;;;2.37;60.43;102486.50;5022361;28;20441;-68
2024/03/19 09:37:54;;;;;;;1.87;0.87;;;;;;;2.40;61.04;102484.88;5021588;28;20455;-68
2024/03/19 09:40:21;;;;;;;1.00;0.50;;;;;;;2.40;61.18;102490.91;5024690;28;20492;-68
2024/03/19 09:42:48;;;;;;;1.53;0.70;;;;;;;2.53;60.79;102494.84;5022614;28;20458;-68
2024/03/19 09:45:26;;;;;;;2.73;0.90;;;;;;;2.64;60.73;102483.22;5023868;28;20447;-69
2024/03/19 09:47:55;;;;;;;0.80;0.80;;;;;;;2.76;60.70;102482.81;5022733;28;20450;-68
2024/03/19 09:50:23;;;;;;;2.00;0.90;;;;;;;2.87;60.31;102472.84;5023028;28;20459;-68
2024/03/19 09:52:52;;;;;;;0.87;0.73;;;;;;;2.88;60.50;102472.03;5024912;28;20950;-68
2024/03/19 09:55:19;;;;;;;2.37;0.53;;;;;;;2.85;60.33;102474.50;5023189;28;20444;-68
2024/03/19 09:57:48;;;;;;;0.83;0.80;;;;;;;2.82;60.32;102475.28;5022896;28;20457;-68
2024/03/19 10:00:20;;;;;;;0.57;0.57;;;;;;;2.83;59.35;102469.25;5024764;28;20532;-68
2024/03/19 10:02:48;;;;;;;0.77;0.60;;;;;;;2.86;59.71;102478.84;5023736;28;20500;-68
2024/03/19 10:05:15;;;;;;;2.00;0.50;;;;;;;2.86;59.84;102466.78;5021859;28;20526;-68
2024/03/19 10:07:42;;;;;;;0.73;0.70;;;;;;;2.88;59.47;102469.44;5024224;28;20445;-68
2024/03/19 10:10:16;;;;;;;0.70;0.70;;;;;;;2.92;59.62;102471.31;5023552;28;20526;-68
2024/03/19 10:12:42;;;;;;;0.93;0.87;;;;;;;2.93;59.55;102471.38;5021869;28;20469;-68
2024/03/19 10:15:17;;;;;;;1.70;0.73;;;;;;;2.91;59.09;102454.03;5023557;28;20443;-73
2024/03/19 10:17:44;;;;;;;0.97;0.70;;;;;;;2.95;59.26;102456.78;5024641;28;20449;-73
2024/03/19 10:20:12;;;;;;;2.10;0.90;;;;;;;2.98;59.19;102461.19;5022505;28;20526;-73
2024/03/19 10:22:40;;;;;;;0.80;0.80;;;;;;;2.99;58.68;102450.91;5022386;28;20568;-73
2024/03/19 10:25:08;;;;;;;0.40;0.27;;;;;;;3.01;59.24;102443.19;5024448;28;20472;-74
2024/03/19 10:27:37;;;;;;;1.67;1.10;;;;;;;3.01;58.29;102448.34;5022660;28;20454;-73
2024/03/19 10:30:04;;;;;;;2.13;1.00;;;;;;;2.98;58.60;102454.28;5021892;28;20474;-72
2024/03/19 10:32:32;;;;;;;0.90;0.60;;;;;;;2.97;58.56;102452.53;5024332;28;20451;-73
2024/03/19 10:35:01;;;;;;;2.07;0.93;;;;;;;2.98;58.59;102450.84;5022742;28;20451;-73
2024/03/19 10:37:28;;;;;;;1.63;0.97;;;;;;;2.95;58.73;102445.56;5021484;28;20453;-73
2024/03/19 10:39:55;;;;;;;0.20;0.13;;;;;;;2.96;58.02;102447.34;5021627;28;20931;-73
2024/03/19 10:42:24;;;;;;;2.63;1.13;;;;;;;2.90;57.82;102452.25;5022722;28;20486;-74
2024/03/19 10:44:53;;;;;;;0.43;0.43;;;;;;;2.85;57.78;102446.94;5024537;28;20531;-71
2024/03/19 10:47:22;;;;;;;0.40;0.40;;;;;;;2.80;57.85;102440.72;5020408;28;20486;-71
2024/03/19 10:49:49;;;;;;;0.23;0.23;;;;;;;2.74;57.44;102445.69;5023118;28;20944;-71
2024/03/19 10:52:21;;;;;;;0.30;0.30;;;;;;;2.69;57.53;102448.06;5020335;28;20913;-71
2024/03/19 10:54:49;;;;;;;2.03;0.87;;;;;;;2.66;57.44;102441.94;5023011;28;20442;-70
2024/03/19 10:57:18;;;;;;;1.13;0.90;;;;;;;2.63;57.45;102447.88;5023950;28;20805;-71
2024/03/19 10:59:45;;;;;;;2.33;0.80;;;;;;;2.61;57.28;102439.16;5021484;28;20528;-71
2024/03/19 11:02:18;;;;;;;0.60;0.60;;;;;;;2.58;57.34;102434.75;5022326;28;20920;-71
2024/03/19 11:04:54;;;;;;;2.10;0.80;;;;;;;2.56;57.53;102428.69;5023963;28;20438;-70
2024/03/19 11:07:23;;;;;;;1.50;0.63;;;;;;;2.54;57.42;102425.16;5023445;28;20994;-71
2024/03/19 11:09:52;;;;;;;1.63;0.77;;;;;;;2.52;57.67;102429.38;5021078;28;20439;-70
2024/03/19 11:12:22;;;;;;;0.47;0.47;;;;;;;2.51;57.71;102427.63;5022637;28;20511;-71
2024/03/19 11:14:54;;;;;;;1.83;0.60;;;;;;;2.50;57.77;102428.47;5023992;28;20444;-71
2024/03/19 11:17:27;;;;;;;1.80;0.90;;;;;;;2.49;57.52;102425.81;5022473;28;20813;-71
2024/03/19 11:19:55;;;;;;;2.30;0.60;;;;;;;2.49;58.00;102428.38;5021045;28;20459;-70
2024/03/19 11:22:23;;;;;;;0.60;0.60;;;;;;;2.47;57.76;102424.84;5022987;28;20488;-70
2024/03/19 11:24:51;;;;;;;0.90;0.73;;;;;;;2.44;57.71;102417.88;5023109;28;20453;-81
2024/03/19 11:27:19;;;;;;;2.60;0.60;;;;;;;2.46;58.09;102423.09;5021115;28;20453;-80
2024/03/19 11:29:47;;;;;;;0.80;0.60;;;;;;;2.46;58.00;102415.34;5022948;28;20558;-80